aviador You're here:

K2V5 Decoded Metar

in
Report Time2018-06-24 06:55:00
UTC Time2018-06-24 06:57:57
Flight Rules vfr VFR
Wind020° at 08 kt
W.Rank020° ranks 29
Current wind is below 020° avg. (9.8)
Visibility9999 m
Phenomena:N/A
Clouds:Scattered 055 Hf
Scattered 065 Hf
Expected CloudBase > 1,200 ft AGL from Temp-Dew spread
CeilingNone
Temp16°C
Dew Point13°C (83% RH)
AAT14.1°C
QNH1012 hPa
Raw Report
METAR K2V5 240655Z AUTO 02008KT 10SM SCT055 SCT065 16/13 A2988 RMK
AO2 LTG DSNT W=

Extra information for K2V5:More info

Social comments